sensor_id;sensor_type;location;lat;lon;timestamp;P1;durP1;ratioP1;P2;durP2;ratioP2
19374;SDS011;9823;50.936;4.046;2022-08-03T00:02:05;6.93;;;1.57;;
19374;SDS011;9823;50.936;4.046;2022-08-03T00:04:33;4.33;;;1.30;;
19374;SDS011;9823;50.936;4.046;2022-08-03T00:07:02;6.63;;;1.40;;
19374;SDS011;9823;50.936;4.046;2022-08-03T00:09:28;7.67;;;1.50;;
19374;SDS011;9823;50.936;4.046;2022-08-03T00:11:55;7.17;;;1.57;;
19374;SDS011;9823;50.936;4.046;2022-08-03T00:14:23;6.20;;;1.57;;
19374;SDS011;9823;50.936;4.046;2022-08-03T00:16:52;8.47;;;1.50;;
19374;SDS011;9823;50.936;4.046;2022-08-03T00:19:18;4.77;;;1.40;;
19374;SDS011;9823;50.936;4.046;2022-08-03T00:21:46;6.87;;;1.30;;
19374;SDS011;9823;50.936;4.046;2022-08-03T00:24:14;7.13;;;1.60;;
19374;SDS011;9823;50.936;4.046;2022-08-03T00:26:40;5.97;;;1.50;;
19374;SDS011;9823;50.936;4.046;2022-08-03T00:29:15;5.03;;;1.40;;
19374;SDS011;9823;50.936;4.046;2022-08-03T00:31:41;7.47;;;1.47;;
19374;SDS011;9823;50.936;4.046;2022-08-03T00:34:07;8.70;;;1.80;;
19374;SDS011;9823;50.936;4.046;2022-08-03T00:36:33;9.23;;;1.70;;
19374;SDS011;9823;50.936;4.046;2022-08-03T00:39:02;6.60;;;1.57;;
19374;SDS011;9823;50.936;4.046;2022-08-03T00:41:28;10.03;;;2.13;;
19374;SDS011;9823;50.936;4.046;2022-08-03T00:43:54;10.00;;;1.50;;
19374;SDS011;9823;50.936;4.046;2022-08-03T00:46:20;8.77;;;1.60;;
19374;SDS011;9823;50.936;4.046;2022-08-03T00:48:49;11.23;;;1.60;;
19374;SDS011;9823;50.936;4.046;2022-08-03T00:51:17;11.63;;;1.90;;
19374;SDS011;9823;50.936;4.046;2022-08-03T00:53:44;4.80;;;1.70;;
19374;SDS011;9823;50.936;4.046;2022-08-03T00:56:16;9.47;;;1.80;;
19374;SDS011;9823;50.936;4.046;2022-08-03T00:58:45;6.10;;;1.60;;
19374;SDS011;9823;50.936;4.046;2022-08-03T01:01:14;6.83;;;1.80;;
19374;SDS011;9823;50.936;4.046;2022-08-03T01:03:41;10.87;;;2.03;;
19374;SDS011;9823;50.936;4.046;2022-08-03T01:06:24;9.97;;;1.80;;
19374;SDS011;9823;50.936;4.046;2022-08-03T01:14:07;7.40;;;1.50;;
19374;SDS011;9823;50.936;4.046;2022-08-03T01:16:52;6.33;;;1.90;;
19374;SDS011;9823;50.936;4.046;2022-08-03T01:22:34;3.83;;;1.53;;
19374;SDS011;9823;50.936;4.046;2022-08-03T01:25:05;7.67;;;1.90;;
19374;SDS011;9823;50.936;4.046;2022-08-03T01:30:09;6.67;;;1.70;;
19374;SDS011;9823;50.936;4.046;2022-08-03T01:35:10;6.40;;;1.70;;
19374;SDS011;9823;50.936;4.046;2022-08-03T01:37:38;9.07;;;1.70;;
19374;SDS011;9823;50.936;4.046;2022-08-03T01:40:05;8.90;;;2.00;;
19374;SDS011;9823;50.936;4.046;2022-08-03T01:42:32;11.57;;;1.90;;
19374;SDS011;9823;50.936;4.046;2022-08-03T01:44:59;11.57;;;2.20;;
19374;SDS011;9823;50.936;4.046;2022-08-03T01:47:32;10.23;;;1.60;;
19374;SDS011;9823;50.936;4.046;2022-08-03T01:49:59;5.50;;;1.80;;
19374;SDS011;9823;50.936;4.046;2022-08-03T01:52:26;7.77;;;2.00;;
19374;SDS011;9823;50.936;4.046;2022-08-03T01:54:58;7.47;;;1.70;;
19374;SDS011;9823;50.936;4.046;2022-08-03T01:57:24;10.97;;;1.70;;
19374;SDS011;9823;50.936;4.046;2022-08-03T01:59:52;5.17;;;1.63;;
19374;SDS011;9823;50.936;4.046;2022-08-03T02:02:19;7.70;;;2.03;;
19374;SDS011;9823;50.936;4.046;2022-08-03T02:04:46;9.60;;;1.97;;
19374;SDS011;9823;50.936;4.046;2022-08-03T02:07:13;11.43;;;1.90;;
19374;SDS011;9823;50.936;4.046;2022-08-03T02:09:39;8.90;;;2.20;;
19374;SDS011;9823;50.936;4.046;2022-08-03T02:12:07;10.00;;;1.70;;
19374;SDS011;9823;50.936;4.046;2022-08-03T02:14:34;8.57;;;2.13;;
19374;SDS011;9823;50.936;4.046;2022-08-03T02:17:00;8.50;;;2.17;;
19374;SDS011;9823;50.936;4.046;2022-08-03T02:19:26;7.97;;;1.80;;
19374;SDS011;9823;50.936;4.046;2022-08-03T02:21:53;9.47;;;1.73;;
19374;SDS011;9823;50.936;4.046;2022-08-03T02:24:19;14.17;;;2.20;;
19374;SDS011;9823;50.936;4.046;2022-08-03T02:26:45;9.57;;;2.20;;
19374;SDS011;9823;50.936;4.046;2022-08-03T02:29:15;6.37;;;1.80;;
19374;SDS011;9823;50.936;4.046;2022-08-03T02:31:49;8.57;;;1.90;;
19374;SDS011;9823;50.936;4.046;2022-08-03T02:34:19;9.43;;;2.40;;
19374;SDS011;9823;50.936;4.046;2022-08-03T02:36:47;9.03;;;2.30;;
19374;SDS011;9823;50.936;4.046;2022-08-03T02:39:18;9.27;;;2.00;;
19374;SDS011;9823;50.936;4.046;2022-08-03T02:41:47;11.10;;;2.03;;
19374;SDS011;9823;50.936;4.046;2022-08-03T02:44:13;7.17;;;1.80;;
19374;SDS011;9823;50.936;4.046;2022-08-03T02:46:42;11.77;;;2.10;;
19374;SDS011;9823;50.936;4.046;2022-08-03T02:49:11;7.40;;;1.70;;
19374;SDS011;9823;50.936;4.046;2022-08-03T02:51:40;7.93;;;2.17;;
19374;SDS011;9823;50.936;4.046;2022-08-03T02:54:09;10.23;;;2.20;;
19374;SDS011;9823;50.936;4.046;2022-08-03T02:56:36;7.87;;;2.10;;
19374;SDS011;9823;50.936;4.046;2022-08-03T02:59:02;7.83;;;1.97;;
19374;SDS011;9823;50.936;4.046;2022-08-03T03:01:29;10.57;;;2.20;;
19374;SDS011;9823;50.936;4.046;2022-08-03T03:03:56;9.60;;;2.50;;
19374;SDS011;9823;50.936;4.046;2022-08-03T03:06:28;9.27;;;2.17;;
19374;SDS011;9823;50.936;4.046;2022-08-03T03:08:57;13.40;;;2.30;;
19374;SDS011;9823;50.936;4.046;2022-08-03T03:11:24;8.33;;;2.03;;
19374;SDS011;9823;50.936;4.046;2022-08-03T03:13:50;8.53;;;2.80;;
19374;SDS011;9823;50.936;4.046;2022-08-03T03:16:17;8.40;;;2.33;;
19374;SDS011;9823;50.936;4.046;2022-08-03T03:18:44;8.70;;;2.20;;
19374;SDS011;9823;50.936;4.046;2022-08-03T03:21:10;10.17;;;2.20;;
19374;SDS011;9823;50.936;4.046;2022-08-03T03:23:37;9.97;;;2.20;;
19374;SDS011;9823;50.936;4.046;2022-08-03T03:26:07;8.97;;;2.27;;
19374;SDS011;9823;50.936;4.046;2022-08-03T03:28:33;11.03;;;2.30;;
19374;SDS011;9823;50.936;4.046;2022-08-03T03:31:01;9.53;;;2.20;;
19374;SDS011;9823;50.936;4.046;2022-08-03T03:33:31;11.00;;;2.50;;
19374;SDS011;9823;50.936;4.046;2022-08-03T03:35:57;7.93;;;2.73;;
19374;SDS011;9823;50.936;4.046;2022-08-03T03:38:28;7.97;;;2.17;;
19374;SDS011;9823;50.936;4.046;2022-08-03T03:40:58;11.20;;;2.43;;
19374;SDS011;9823;50.936;4.046;2022-08-03T03:43:24;10.57;;;2.60;;
19374;SDS011;9823;50.936;4.046;2022-08-03T03:45:50;10.17;;;2.80;;
19374;SDS011;9823;50.936;4.046;2022-08-03T03:48:20;8.80;;;2.20;;
19374;SDS011;9823;50.936;4.046;2022-08-03T03:50:47;7.70;;;2.97;;
19374;SDS011;9823;50.936;4.046;2022-08-03T03:53:19;9.90;;;2.70;;
19374;SDS011;9823;50.936;4.046;2022-08-03T03:55:47;7.20;;;2.13;;
19374;SDS011;9823;50.936;4.046;2022-08-03T03:58:13;11.27;;;2.37;;
19374;SDS011;9823;50.936;4.046;2022-08-03T04:00:40;12.40;;;2.20;;
19374;SDS011;9823;50.936;4.046;2022-08-03T04:03:09;6.37;;;2.20;;
19374;SDS011;9823;50.936;4.046;2022-08-03T04:05:36;12.30;;;2.70;;
19374;SDS011;9823;50.936;4.046;2022-08-03T04:08:23;8.70;;;2.60;;
19374;SDS011;9823;50.936;4.046;2022-08-03T04:11:18;15.80;;;3.10;;
19374;SDS011;9823;50.936;4.046;2022-08-03T04:16:18;22.30;;;2.63;;
19374;SDS011;9823;50.936;4.046;2022-08-03T04:18:53;14.00;;;2.53;;
19374;SDS011;9823;50.936;4.046;2022-08-03T04:21:20;12.03;;;2.60;;
19374;SDS011;9823;50.936;4.046;2022-08-03T04:23:48;16.90;;;2.87;;
19374;SDS011;9823;50.936;4.046;2022-08-03T04:26:15;14.47;;;2.67;;
19374;SDS011;9823;50.936;4.046;2022-08-03T04:28:42;13.53;;;2.47;;
19374;SDS011;9823;50.936;4.046;2022-08-03T04:31:10;8.10;;;2.67;;
19374;SDS011;9823;50.936;4.046;2022-08-03T04:33:39;13.17;;;2.40;;
19374;SDS011;9823;50.936;4.046;2022-08-03T04:36:09;10.77;;;2.67;;
19374;SDS011;9823;50.936;4.046;2022-08-03T04:38:36;8.93;;;2.57;;
19374;SDS011;9823;50.936;4.046;2022-08-03T04:41:03;13.33;;;2.63;;
19374;SDS011;9823;50.936;4.046;2022-08-03T04:43:32;7.93;;;2.80;;
19374;SDS011;9823;50.936;4.046;2022-08-03T04:46:01;11.00;;;2.67;;
19374;SDS011;9823;50.936;4.046;2022-08-03T04:48:29;9.93;;;2.60;;
19374;SDS011;9823;50.936;4.046;2022-08-03T04:50:58;18.23;;;3.03;;
19374;SDS011;9823;50.936;4.046;2022-08-03T04:53:24;9.37;;;2.60;;
19374;SDS011;9823;50.936;4.046;2022-08-03T04:55:51;15.40;;;3.23;;
19374;SDS011;9823;50.936;4.046;2022-08-03T04:58:17;15.00;;;3.10;;
19374;SDS011;9823;50.936;4.046;2022-08-03T05:00:43;13.57;;;2.73;;
19374;SDS011;9823;50.936;4.046;2022-08-03T05:03:17;10.60;;;3.07;;
19374;SDS011;9823;50.936;4.046;2022-08-03T05:05:43;18.63;;;3.33;;
19374;SDS011;9823;50.936;4.046;2022-08-03T05:08:09;18.17;;;3.13;;
19374;SDS011;9823;50.936;4.046;2022-08-03T05:10:37;8.17;;;2.67;;
19374;SDS011;9823;50.936;4.046;2022-08-03T05:13:03;8.07;;;2.53;;
19374;SDS011;9823;50.936;4.046;2022-08-03T05:15:29;12.53;;;3.20;;
19374;SDS011;9823;50.936;4.046;2022-08-03T05:17:55;12.03;;;2.60;;
19374;SDS011;9823;50.936;4.046;2022-08-03T05:20:22;7.50;;;2.40;;
19374;SDS011;9823;50.936;4.046;2022-08-03T05:22:47;10.83;;;2.97;;
19374;SDS011;9823;50.936;4.046;2022-08-03T05:25:14;14.17;;;2.80;;
19374;SDS011;9823;50.936;4.046;2022-08-03T05:27:42;11.20;;;2.60;;
19374;SDS011;9823;50.936;4.046;2022-08-03T05:30:08;7.33;;;2.70;;
19374;SDS011;9823;50.936;4.046;2022-08-03T05:32:40;16.87;;;2.43;;
19374;SDS011;9823;50.936;4.046;2022-08-03T05:35:08;11.13;;;2.83;;
19374;SDS011;9823;50.936;4.046;2022-08-03T05:37:34;10.63;;;2.87;;
19374;SDS011;9823;50.936;4.046;2022-08-03T05:40:00;15.30;;;2.70;;
19374;SDS011;9823;50.936;4.046;2022-08-03T05:42:26;10.20;;;2.80;;
19374;SDS011;9823;50.936;4.046;2022-08-03T05:44:57;9.60;;;2.83;;
19374;SDS011;9823;50.936;4.046;2022-08-03T05:47:23;12.30;;;3.13;;
19374;SDS011;9823;50.936;4.046;2022-08-03T05:49:52;10.70;;;2.70;;
19374;SDS011;9823;50.936;4.046;2022-08-03T05:52:18;12.67;;;3.13;;
19374;SDS011;9823;50.936;4.046;2022-08-03T05:54:44;12.60;;;3.07;;
19374;SDS011;9823;50.936;4.046;2022-08-03T05:57:12;11.57;;;2.33;;
19374;SDS011;9823;50.936;4.046;2022-08-03T05:59:42;10.63;;;2.73;;
19374;SDS011;9823;50.936;4.046;2022-08-03T06:02:08;8.73;;;2.73;;
19374;SDS011;9823;50.936;4.046;2022-08-03T06:04:37;9.30;;;2.50;;
19374;SDS011;9823;50.936;4.046;2022-08-03T06:07:05;9.20;;;2.03;;
19374;SDS011;9823;50.936;4.046;2022-08-03T06:09:34;13.33;;;2.40;;
19374;SDS011;9823;50.936;4.046;2022-08-03T06:12:02;8.80;;;2.00;;
19374;SDS011;9823;50.936;4.046;2022-08-03T06:14:30;11.63;;;1.83;;
19374;SDS011;9823;50.936;4.046;2022-08-03T06:16:59;8.67;;;2.07;;
19374;SDS011;9823;50.936;4.046;2022-08-03T06:19:27;11.70;;;2.60;;
19374;SDS011;9823;50.936;4.046;2022-08-03T06:21:56;8.90;;;1.90;;
19374;SDS011;9823;50.936;4.046;2022-08-03T06:24:22;12.13;;;2.20;;
19374;SDS011;9823;50.936;4.046;2022-08-03T06:26:50;17.77;;;2.43;;
19374;SDS011;9823;50.936;4.046;2022-08-03T06:29:16;9.37;;;1.80;;
19374;SDS011;9823;50.936;4.046;2022-08-03T06:31:42;14.47;;;2.13;;
19374;SDS011;9823;50.936;4.046;2022-08-03T06:34:08;13.43;;;1.73;;
19374;SDS011;9823;50.936;4.046;2022-08-03T06:36:34;37.37;;;4.30;;
19374;SDS011;9823;50.936;4.046;2022-08-03T06:39:00;23.97;;;2.67;;
19374;SDS011;9823;50.936;4.046;2022-08-03T06:41:29;10.70;;;1.83;;
19374;SDS011;9823;50.936;4.046;2022-08-03T06:43:55;9.10;;;1.97;;
19374;SDS011;9823;50.936;4.046;2022-08-03T06:46:21;7.30;;;2.07;;
19374;SDS011;9823;50.936;4.046;2022-08-03T06:48:47;5.93;;;2.20;;
19374;SDS011;9823;50.936;4.046;2022-08-03T06:51:16;9.83;;;2.00;;
19374;SDS011;9823;50.936;4.046;2022-08-03T06:53:44;21.87;;;2.50;;
19374;SDS011;9823;50.936;4.046;2022-08-03T06:56:10;6.83;;;1.67;;
19374;SDS011;9823;50.936;4.046;2022-08-03T06:58:36;6.60;;;1.63;;
19374;SDS011;9823;50.936;4.046;2022-08-03T07:04:05;10.33;;;2.07;;
19374;SDS011;9823;50.936;4.046;2022-08-03T07:06:31;10.10;;;1.80;;
19374;SDS011;9823;50.936;4.046;2022-08-03T07:09:00;7.50;;;1.80;;
19374;SDS011;9823;50.936;4.046;2022-08-03T07:11:29;10.63;;;1.73;;
19374;SDS011;9823;50.936;4.046;2022-08-03T07:13:55;8.77;;;1.67;;
19374;SDS011;9823;50.936;4.046;2022-08-03T07:16:21;4.33;;;1.60;;
19374;SDS011;9823;50.936;4.046;2022-08-03T07:18:47;10.00;;;2.00;;
19374;SDS011;9823;50.936;4.046;2022-08-03T07:21:16;6.00;;;1.70;;
19374;SDS011;9823;50.936;4.046;2022-08-03T07:23:42;6.67;;;1.80;;
19374;SDS011;9823;50.936;4.046;2022-08-03T07:26:08;5.30;;;2.17;;
19374;SDS011;9823;50.936;4.046;2022-08-03T07:28:34;11.23;;;1.73;;
19374;SDS011;9823;50.936;4.046;2022-08-03T07:31:00;9.47;;;1.40;;
19374;SDS011;9823;50.936;4.046;2022-08-03T07:33:33;10.30;;;1.83;;
19374;SDS011;9823;50.936;4.046;2022-08-03T07:35:59;9.13;;;1.90;;
19374;SDS011;9823;50.936;4.046;2022-08-03T07:38:25;7.60;;;1.67;;
19374;SDS011;9823;50.936;4.046;2022-08-03T07:40:54;20.10;;;2.33;;
19374;SDS011;9823;50.936;4.046;2022-08-03T07:43:20;9.63;;;1.90;;
19374;SDS011;9823;50.936;4.046;2022-08-03T08:40:20;14.45;;;1.85;;
19374;SDS011;9823;50.936;4.046;2022-08-03T08:43:02;12.29;;;2.27;;
19374;SDS011;9823;50.936;4.046;2022-08-03T08:45:31;11.63;;;2.17;;
19374;SDS011;9823;50.936;4.046;2022-08-03T08:47:59;10.40;;;2.20;;
19374;SDS011;9823;50.936;4.046;2022-08-03T08:50:29;14.48;;;2.30;;
19374;SDS011;9823;50.936;4.046;2022-08-03T08:52:57;10.02;;;2.30;;
19374;SDS011;9823;50.936;4.046;2022-08-03T08:55:24;14.52;;;2.38;;
19374;SDS011;9823;50.936;4.046;2022-08-03T08:57:56;9.75;;;1.88;;
19374;SDS011;9823;50.936;4.046;2022-08-03T09:00:23;17.52;;;2.42;;
19374;SDS011;9823;50.936;4.046;2022-08-03T09:02:49;13.02;;;2.40;;
19374;SDS011;9823;50.936;4.046;2022-08-03T09:05:16;9.32;;;2.10;;
19374;SDS011;9823;50.936;4.046;2022-08-03T09:07:47;14.35;;;2.42;;
19374;SDS011;9823;50.936;4.046;2022-08-03T09:10:15;13.07;;;2.72;;
19374;SDS011;9823;50.936;4.046;2022-08-03T09:12:47;15.95;;;2.33;;
19374;SDS011;9823;50.936;4.046;2022-08-03T09:17:45;8.20;;;1.80;;
19374;SDS011;9823;50.936;4.046;2022-08-03T09:20:14;12.77;;;1.80;;
19374;SDS011;9823;50.936;4.046;2022-08-03T09:25:39;7.82;;;1.92;;
19374;SDS011;9823;50.936;4.046;2022-08-03T09:28:10;9.67;;;1.97;;
19374;SDS011;9823;50.936;4.046;2022-08-03T09:30:41;6.70;;;1.70;;
19374;SDS011;9823;50.936;4.046;2022-08-03T09:33:13;9.47;;;2.17;;
19374;SDS011;9823;50.936;4.046;2022-08-03T09:35:42;12.37;;;1.87;;
19374;SDS011;9823;50.936;4.046;2022-08-03T09:40:34;8.13;;;1.53;;
19374;SDS011;9823;50.936;4.046;2022-08-03T09:43:09;12.97;;;2.10;;
19374;SDS011;9823;50.936;4.046;2022-08-03T09:45:38;9.48;;;2.17;;
19374;SDS011;9823;50.936;4.046;2022-08-03T09:50:49;15.68;;;2.50;;
19374;SDS011;9823;50.936;4.046;2022-08-03T09:53:16;8.55;;;2.30;;
19374;SDS011;9823;50.936;4.046;2022-08-03T09:55:52;10.48;;;2.10;;
19374;SDS011;9823;50.936;4.046;2022-08-03T09:58:22;8.38;;;2.10;;
19374;SDS011;9823;50.936;4.046;2022-08-03T10:03:23;7.47;;;1.85;;
19374;SDS011;9823;50.936;4.046;2022-08-03T10:05:52;11.18;;;2.00;;
19374;SDS011;9823;50.936;4.046;2022-08-03T10:08:18;4.43;;;1.60;;
19374;SDS011;9823;50.936;4.046;2022-08-03T10:10:45;8.07;;;1.48;;
19374;SDS011;9823;50.936;4.046;2022-08-03T10:13:15;14.43;;;2.20;;
19374;SDS011;9823;50.936;4.046;2022-08-03T10:15:44;6.93;;;2.03;;
19374;SDS011;9823;50.936;4.046;2022-08-03T10:18:10;5.15;;;1.75;;
19374;SDS011;9823;50.936;4.046;2022-08-03T10:20:37;9.30;;;2.05;;
19374;SDS011;9823;50.936;4.046;2022-08-03T10:23:07;10.88;;;1.90;;
19374;SDS011;9823;50.936;4.046;2022-08-03T10:25:34;8.15;;;1.67;;
19374;SDS011;9823;50.936;4.046;2022-08-03T10:28:02;9.47;;;2.53;;
19374;SDS011;9823;50.936;4.046;2022-08-03T10:30:29;5.13;;;1.25;;
19374;SDS011;9823;50.936;4.046;2022-08-03T10:35:25;6.83;;;1.60;;
19374;SDS011;9823;50.936;4.046;2022-08-03T10:37:56;6.37;;;1.57;;
19374;SDS011;9823;50.936;4.046;2022-08-03T10:40:23;7.20;;;1.73;;
19374;SDS011;9823;50.936;4.046;2022-08-03T10:42:50;10.67;;;1.93;;
19374;SDS011;9823;50.936;4.046;2022-08-03T10:45:20;5.83;;;1.30;;
19374;SDS011;9823;50.936;4.046;2022-08-03T10:47:48;10.63;;;1.77;;
19374;SDS011;9823;50.936;4.046;2022-08-03T10:50:16;5.50;;;1.50;;
19374;SDS011;9823;50.936;4.046;2022-08-03T10:52:55;8.57;;;1.40;;
19374;SDS011;9823;50.936;4.046;2022-08-03T10:55:28;5.00;;;1.40;;
19374;SDS011;9823;50.936;4.046;2022-08-03T10:58:13;6.73;;;1.50;;
19374;SDS011;9823;50.936;4.046;2022-08-03T11:00:48;8.40;;;1.60;;
19374;SDS011;9823;50.936;4.046;2022-08-03T11:03:17;7.13;;;2.33;;
19374;SDS011;9823;50.936;4.046;2022-08-03T11:05:44;4.30;;;1.63;;
19374;SDS011;9823;50.936;4.046;2022-08-03T11:08:24;8.43;;;1.40;;
19374;SDS011;9823;50.936;4.046;2022-08-03T11:10:53;9.47;;;1.73;;
19374;SDS011;9823;50.936;4.046;2022-08-03T11:13:22;8.43;;;1.37;;
19374;SDS011;9823;50.936;4.046;2022-08-03T11:15:55;5.80;;;1.40;;
19374;SDS011;9823;50.936;4.046;2022-08-03T11:18:22;6.03;;;1.30;;
19374;SDS011;9823;50.936;4.046;2022-08-03T11:20:52;8.07;;;1.33;;
19374;SDS011;9823;50.936;4.046;2022-08-03T11:23:40;7.13;;;1.20;;
19374;SDS011;9823;50.936;4.046;2022-08-03T11:26:16;11.60;;;1.50;;
19374;SDS011;9823;50.936;4.046;2022-08-03T11:28:43;6.07;;;1.30;;
19374;SDS011;9823;50.936;4.046;2022-08-03T11:34:06;8.43;;;1.40;;
19374;SDS011;9823;50.936;4.046;2022-08-03T11:39:17;4.40;;;1.53;;
19374;SDS011;9823;50.936;4.046;2022-08-03T11:41:43;4.53;;;1.30;;
19374;SDS011;9823;50.936;4.046;2022-08-03T11:44:10;4.53;;;1.30;;
19374;SDS011;9823;50.936;4.046;2022-08-03T11:46:55;3.90;;;1.00;;
19374;SDS011;9823;50.936;4.046;2022-08-03T11:49:22;4.00;;;0.90;;
19374;SDS011;9823;50.936;4.046;2022-08-03T11:51:54;5.67;;;1.40;;
19374;SDS011;9823;50.936;4.046;2022-08-03T11:54:22;3.70;;;1.30;;
19374;SDS011;9823;50.936;4.046;2022-08-03T11:56:51;1.90;;;1.00;;
19374;SDS011;9823;50.936;4.046;2022-08-03T11:59:17;7.27;;;1.20;;
19374;SDS011;9823;50.936;4.046;2022-08-03T12:02:05;5.07;;;1.33;;
19374;SDS011;9823;50.936;4.046;2022-08-03T12:07:38;9.20;;;1.83;;
19374;SDS011;9823;50.936;4.046;2022-08-03T12:10:13;3.50;;;1.00;;
19374;SDS011;9823;50.936;4.046;2022-08-03T12:12:39;5.57;;;1.30;;
19374;SDS011;9823;50.936;4.046;2022-08-03T12:15:07;4.83;;;1.40;;
19374;SDS011;9823;50.936;4.046;2022-08-03T12:17:37;5.93;;;1.93;;
19374;SDS011;9823;50.936;4.046;2022-08-03T12:20:05;6.60;;;1.60;;
19374;SDS011;9823;50.936;4.046;2022-08-03T12:22:34;2.77;;;1.17;;
19374;SDS011;9823;50.936;4.046;2022-08-03T12:25:06;4.63;;;1.60;;
19374;SDS011;9823;50.936;4.046;2022-08-03T12:27:33;3.93;;;1.40;;
19374;SDS011;9823;50.936;4.046;2022-08-03T12:29:59;5.33;;;1.17;;
19374;SDS011;9823;50.936;4.046;2022-08-03T12:32:28;9.50;;;1.77;;
19374;SDS011;9823;50.936;4.046;2022-08-03T12:34:55;6.00;;;1.57;;
19374;SDS011;9823;50.936;4.046;2022-08-03T12:37:32;2.30;;;1.00;;
19374;SDS011;9823;50.936;4.046;2022-08-03T12:39:59;2.13;;;0.93;;
19374;SDS011;9823;50.936;4.046;2022-08-03T12:42:35;3.50;;;1.07;;
19374;SDS011;9823;50.936;4.046;2022-08-03T12:45:20;7.70;;;1.30;;
19374;SDS011;9823;50.936;4.046;2022-08-03T12:47:58;3.73;;;1.30;;
19374;SDS011;9823;50.936;4.046;2022-08-03T12:50:32;3.90;;;1.00;;
19374;SDS011;9823;50.936;4.046;2022-08-03T12:52:58;7.73;;;1.20;;
19374;SDS011;9823;50.936;4.046;2022-08-03T12:55:25;5.00;;;1.33;;
19374;SDS011;9823;50.936;4.046;2022-08-03T12:57:58;2.40;;;1.10;;
19374;SDS011;9823;50.936;4.046;2022-08-03T13:00:24;5.27;;;1.33;;
19374;SDS011;9823;50.936;4.046;2022-08-03T13:03:05;4.77;;;1.33;;
19374;SDS011;9823;50.936;4.046;2022-08-03T13:05:43;4.70;;;1.10;;
19374;SDS011;9823;50.936;4.046;2022-08-03T13:08:16;5.67;;;1.30;;
19374;SDS011;9823;50.936;4.046;2022-08-03T13:10:42;3.50;;;1.20;;
19374;SDS011;9823;50.936;4.046;2022-08-03T13:13:09;6.73;;;1.40;;
19374;SDS011;9823;50.936;4.046;2022-08-03T13:15:38;3.97;;;1.60;;
19374;SDS011;9823;50.936;4.046;2022-08-03T13:18:04;7.60;;;1.27;;
19374;SDS011;9823;50.936;4.046;2022-08-03T13:20:30;5.37;;;1.27;;
19374;SDS011;9823;50.936;4.046;2022-08-03T13:22:58;5.37;;;1.13;;
19374;SDS011;9823;50.936;4.046;2022-08-03T13:25:25;6.00;;;1.00;;
19374;SDS011;9823;50.936;4.046;2022-08-03T13:27:51;3.87;;;1.20;;
19374;SDS011;9823;50.936;4.046;2022-08-03T13:30:19;5.57;;;1.30;;
19374;SDS011;9823;50.936;4.046;2022-08-03T13:32:45;4.77;;;1.13;;
19374;SDS011;9823;50.936;4.046;2022-08-03T13:35:13;5.13;;;1.17;;
19374;SDS011;9823;50.936;4.046;2022-08-03T13:37:39;5.00;;;1.27;;
19374;SDS011;9823;50.936;4.046;2022-08-03T13:40:05;5.10;;;1.23;;
19374;SDS011;9823;50.936;4.046;2022-08-03T13:42:33;3.10;;;1.20;;
19374;SDS011;9823;50.936;4.046;2022-08-03T13:44:59;6.07;;;1.57;;
19374;SDS011;9823;50.936;4.046;2022-08-03T13:47:26;2.83;;;1.20;;
19374;SDS011;9823;50.936;4.046;2022-08-03T13:49:54;4.20;;;1.60;;
19374;SDS011;9823;50.936;4.046;2022-08-03T13:52:20;3.27;;;1.40;;
19374;SDS011;9823;50.936;4.046;2022-08-03T13:54:46;5.33;;;1.10;;
19374;SDS011;9823;50.936;4.046;2022-08-03T13:57:14;3.83;;;1.83;;
19374;SDS011;9823;50.936;4.046;2022-08-03T13:59:40;7.23;;;1.37;;
19374;SDS011;9823;50.936;4.046;2022-08-03T14:02:07;6.33;;;1.50;;
19374;SDS011;9823;50.936;4.046;2022-08-03T14:04:33;6.80;;;1.73;;
19374;SDS011;9823;50.936;4.046;2022-08-03T14:06:59;4.17;;;1.60;;
19374;SDS011;9823;50.936;4.046;2022-08-03T14:09:32;3.03;;;1.20;;
19374;SDS011;9823;50.936;4.046;2022-08-03T14:11:59;7.27;;;1.33;;
19374;SDS011;9823;50.936;4.046;2022-08-03T14:14:25;8.37;;;1.50;;
19374;SDS011;9823;50.936;4.046;2022-08-03T14:16:51;4.67;;;1.30;;
19374;SDS011;9823;50.936;4.046;2022-08-03T14:19:19;2.27;;;1.00;;
19374;SDS011;9823;50.936;4.046;2022-08-03T14:21:45;5.57;;;1.23;;
19374;SDS011;9823;50.936;4.046;2022-08-03T14:24:11;2.90;;;1.00;;
19374;SDS011;9823;50.936;4.046;2022-08-03T14:26:37;7.23;;;1.40;;
19374;SDS011;9823;50.936;4.046;2022-08-03T14:29:03;5.37;;;1.10;;
19374;SDS011;9823;50.936;4.046;2022-08-03T14:31:29;3.90;;;1.00;;
19374;SDS011;9823;50.936;4.046;2022-08-03T14:33:58;6.67;;;1.30;;
19374;SDS011;9823;50.936;4.046;2022-08-03T14:36:29;3.33;;;1.30;;
19374;SDS011;9823;50.936;4.046;2022-08-03T14:38:54;3.73;;;1.20;;
19374;SDS011;9823;50.936;4.046;2022-08-03T14:41:21;6.77;;;1.20;;
19374;SDS011;9823;50.936;4.046;2022-08-03T14:43:47;4.03;;;1.20;;
19374;SDS011;9823;50.936;4.046;2022-08-03T14:46:13;3.83;;;1.20;;
19374;SDS011;9823;50.936;4.046;2022-08-03T14:48:39;6.30;;;1.83;;
19374;SDS011;9823;50.936;4.046;2022-08-03T14:51:05;5.73;;;1.30;;
19374;SDS011;9823;50.936;4.046;2022-08-03T14:53:32;12.30;;;1.50;;
19374;SDS011;9823;50.936;4.046;2022-08-03T14:55:58;5.23;;;0.90;;
19374;SDS011;9823;50.936;4.046;2022-08-03T14:58:24;8.17;;;2.03;;
19374;SDS011;9823;50.936;4.046;2022-08-03T15:00:51;10.90;;;2.97;;
19374;SDS011;9823;50.936;4.046;2022-08-03T15:03:20;9.27;;;1.20;;
19374;SDS011;9823;50.936;4.046;2022-08-03T15:05:48;6.00;;;1.17;;
19374;SDS011;9823;50.936;4.046;2022-08-03T15:08:14;6.97;;;1.87;;
19374;SDS011;9823;50.936;4.046;2022-08-03T15:10:43;4.13;;;1.20;;
19374;SDS011;9823;50.936;4.046;2022-08-03T15:13:09;5.10;;;1.10;;
19374;SDS011;9823;50.936;4.046;2022-08-03T15:15:35;6.30;;;1.37;;
19374;SDS011;9823;50.936;4.046;2022-08-03T15:18:01;8.03;;;1.20;;
19374;SDS011;9823;50.936;4.046;2022-08-03T15:20:27;11.13;;;1.40;;
19374;SDS011;9823;50.936;4.046;2022-08-03T15:22:53;6.27;;;1.50;;
19374;SDS011;9823;50.936;4.046;2022-08-03T15:25:19;4.93;;;1.60;;
19374;SDS011;9823;50.936;4.046;2022-08-03T15:27:45;5.00;;;1.63;;
19374;SDS011;9823;50.936;4.046;2022-08-03T15:30:11;6.23;;;1.50;;
19374;SDS011;9823;50.936;4.046;2022-08-03T15:32:37;6.00;;;1.50;;
19374;SDS011;9823;50.936;4.046;2022-08-03T15:35:03;7.70;;;1.30;;
19374;SDS011;9823;50.936;4.046;2022-08-03T15:37:29;5.07;;;1.60;;
19374;SDS011;9823;50.936;4.046;2022-08-03T15:39:55;4.03;;;1.20;;
19374;SDS011;9823;50.936;4.046;2022-08-03T15:42:24;2.33;;;1.40;;
19374;SDS011;9823;50.936;4.046;2022-08-03T15:44:50;2.20;;;1.20;;
19374;SDS011;9823;50.936;4.046;2022-08-03T15:47:18;7.07;;;1.20;;
19374;SDS011;9823;50.936;4.046;2022-08-03T15:49:44;9.37;;;2.17;;
19374;SDS011;9823;50.936;4.046;2022-08-03T15:52:13;6.43;;;2.13;;
19374;SDS011;9823;50.936;4.046;2022-08-03T15:54:41;6.57;;;1.13;;
19374;SDS011;9823;50.936;4.046;2022-08-03T15:57:07;4.00;;;1.27;;
19374;SDS011;9823;50.936;4.046;2022-08-03T15:59:33;3.80;;;1.03;;
19374;SDS011;9823;50.936;4.046;2022-08-03T16:01:59;2.93;;;1.00;;
19374;SDS011;9823;50.936;4.046;2022-08-03T16:04:25;3.77;;;1.40;;
19374;SDS011;9823;50.936;4.046;2022-08-03T16:06:56;7.53;;;1.23;;
19374;SDS011;9823;50.936;4.046;2022-08-03T16:09:22;5.30;;;1.13;;
19374;SDS011;9823;50.936;4.046;2022-08-03T16:11:48;5.80;;;1.10;;
19374;SDS011;9823;50.936;4.046;2022-08-03T16:14:14;3.13;;;1.33;;
19374;SDS011;9823;50.936;4.046;2022-08-03T16:16:40;3.37;;;1.40;;
19374;SDS011;9823;50.936;4.046;2022-08-03T16:19:08;2.97;;;1.03;;
19374;SDS011;9823;50.936;4.046;2022-08-03T16:21:36;5.57;;;1.30;;
19374;SDS011;9823;50.936;4.046;2022-08-03T16:24:05;4.53;;;1.30;;
19374;SDS011;9823;50.936;4.046;2022-08-03T16:26:31;9.07;;;1.60;;
19374;SDS011;9823;50.936;4.046;2022-08-03T16:28:57;2.57;;;1.10;;
19374;SDS011;9823;50.936;4.046;2022-08-03T16:31:25;6.97;;;2.43;;
19374;SDS011;9823;50.936;4.046;2022-08-03T16:33:52;6.10;;;1.67;;
19374;SDS011;9823;50.936;4.046;2022-08-03T16:36:18;3.13;;;1.50;;
19374;SDS011;9823;50.936;4.046;2022-08-03T16:38:44;6.37;;;1.60;;
19374;SDS011;9823;50.936;4.046;2022-08-03T16:41:10;4.10;;;1.40;;
19374;SDS011;9823;50.936;4.046;2022-08-03T16:43:39;3.37;;;1.37;;